createdAt,value
2023-09-08T00:01:59.414Z,21.54
2023-09-08T00:04:31.694Z,21.54
2023-09-08T00:07:04.102Z,21.56
2023-09-08T00:09:36.285Z,21.61
2023-09-08T00:12:08.671Z,21.61
2023-09-08T00:14:40.909Z,21.59
2023-09-08T00:17:13.164Z,21.62
2023-09-08T00:19:45.678Z,21.63
2023-09-08T00:22:17.777Z,21.64
2023-09-08T00:24:49.996Z,21.65
2023-09-08T00:27:22.206Z,21.66
2023-09-08T00:29:54.295Z,21.69
2023-09-08T00:32:26.593Z,21.68
2023-09-08T00:34:58.916Z,21.68
2023-09-08T00:37:31.060Z,21.68
2023-09-08T00:40:03.337Z,21.69
2023-09-08T00:42:35.439Z,21.67
2023-09-08T00:45:08.006Z,21.67
2023-09-08T00:47:40.254Z,21.63
2023-09-08T00:50:13.426Z,21.60
2023-09-08T00:52:45.620Z,21.57
2023-09-08T00:55:18.933Z,21.57
2023-09-08T00:57:51.422Z,21.50
2023-09-08T01:00:23.608Z,21.52
2023-09-08T01:02:55.879Z,21.49
2023-09-08T01:05:28.307Z,21.50
2023-09-08T01:08:01.898Z,21.47
2023-09-08T01:10:34.163Z,21.44
2023-09-08T01:13:06.250Z,21.43
2023-09-08T01:15:38.471Z,21.42
2023-09-08T01:18:11.727Z,21.39
2023-09-08T01:21:38.281Z,21.33
2023-09-08T01:25:08.358Z,21.28
2023-09-08T01:27:47.237Z,21.20
2023-09-08T01:30:20.072Z,21.15
2023-09-08T01:32:52.704Z,21.11
2023-09-08T01:35:26.207Z,21.05
2023-09-08T01:37:58.539Z,20.96
2023-09-08T01:40:30.639Z,20.92
2023-09-08T01:43:02.825Z,20.85
2023-09-08T01:45:34.980Z,20.79
2023-09-08T01:48:07.580Z,20.75
2023-09-08T01:50:39.666Z,20.72
2023-09-08T01:53:11.930Z,20.73
2023-09-08T01:55:44.022Z,20.72
2023-09-08T01:58:16.329Z,20.71
2023-09-08T02:00:55.080Z,20.72
2023-09-08T02:03:27.303Z,20.68
2023-09-08T02:05:59.511Z,20.66
2023-09-08T02:08:31.653Z,20.65
2023-09-08T02:11:03.714Z,20.57
2023-09-08T02:13:35.960Z,20.54
2023-09-08T02:16:08.416Z,20.53
2023-09-08T02:18:40.601Z,20.47
2023-09-08T02:21:13.379Z,20.48
2023-09-08T02:23:45.547Z,20.48
2023-09-08T02:26:17.618Z,20.46
2023-09-08T02:28:49.764Z,20.44
2023-09-08T02:31:21.902Z,20.46
2023-09-08T02:33:54.303Z,20.49
2023-09-08T02:36:26.793Z,20.49
2023-09-08T02:38:59.035Z,20.47
2023-09-08T02:41:31.147Z,20.47
2023-09-08T02:44:03.973Z,20.46
2023-09-08T02:46:36.229Z,20.46
2023-09-08T02:49:08.459Z,20.47
2023-09-08T02:51:40.686Z,20.44
2023-09-08T02:54:13.057Z,20.43
2023-09-08T02:56:45.183Z,20.43
2023-09-08T02:59:18.116Z,20.41
2023-09-08T03:01:50.379Z,20.38
2023-09-08T03:04:23.051Z,20.37
2023-09-08T03:06:55.166Z,20.35
2023-09-08T03:09:27.429Z,20.33
2023-09-08T03:12:00.130Z,20.30
2023-09-08T03:14:32.303Z,20.29
2023-09-08T03:17:04.786Z,20.28
2023-09-08T03:19:36.985Z,20.25
2023-09-08T03:22:09.101Z,20.24
2023-09-08T03:24:41.190Z,20.22
2023-09-08T03:27:13.366Z,20.21
2023-09-08T03:29:45.568Z,20.22
2023-09-08T03:32:17.805Z,20.19
2023-09-08T03:34:51.843Z,20.23
2023-09-08T03:37:23.964Z,20.19
2023-09-08T03:39:56.083Z,20.15
2023-09-08T03:42:28.326Z,20.20
2023-09-08T03:45:00.484Z,20.14
2023-09-08T03:47:32.761Z,20.11
2023-09-08T03:50:05.392Z,20.13
2023-09-08T03:52:37.498Z,20.05
2023-09-08T03:55:09.737Z,20.04
2023-09-08T03:57:41.829Z,20.02
2023-09-08T04:00:20.570Z,20.01
2023-09-08T04:02:52.990Z,19.98
2023-09-08T04:05:25.240Z,19.88
2023-09-08T04:07:57.425Z,19.90
2023-09-08T04:10:29.676Z,19.88
2023-09-08T04:13:01.896Z,19.88
2023-09-08T04:15:36.632Z,19.85
2023-09-08T04:18:09.383Z,19.80
2023-09-08T04:20:41.547Z,19.80
2023-09-08T04:23:13.629Z,19.78
2023-09-08T04:25:45.692Z,19.71
2023-09-08T04:28:17.987Z,19.72
2023-09-08T04:30:50.259Z,19.73
2023-09-08T04:33:22.558Z,19.67
2023-09-08T04:35:54.803Z,19.67
2023-09-08T04:38:26.991Z,19.65
2023-09-08T04:40:59.253Z,19.64
2023-09-08T04:43:31.300Z,19.61
2023-09-08T04:46:04.950Z,19.62
2023-09-08T04:48:39.284Z,19.61
2023-09-08T04:51:12.837Z,19.59
2023-09-08T04:53:44.978Z,19.55
2023-09-08T04:56:17.202Z,19.56
2023-09-08T04:58:49.336Z,19.55
2023-09-08T05:01:21.833Z,19.55
2023-09-08T05:03:54.259Z,19.53
2023-09-08T05:06:26.841Z,19.51
2023-09-08T05:09:01.227Z,19.50
2023-09-08T05:11:33.446Z,19.51
2023-09-08T05:14:06.187Z,19.51
2023-09-08T05:16:40.723Z,19.47
2023-09-08T05:19:14.421Z,19.49
2023-09-08T05:21:46.706Z,19.50
2023-09-08T05:24:18.842Z,19.50
2023-09-08T05:26:50.958Z,19.53
2023-09-08T05:29:23.039Z,19.53
2023-09-08T05:31:55.165Z,19.51
2023-09-08T05:34:27.428Z,19.57
2023-09-08T05:36:59.674Z,19.53
2023-09-08T05:39:31.938Z,19.52
2023-09-08T05:42:04.360Z,19.51
2023-09-08T05:44:36.643Z,19.55
2023-09-08T05:47:08.935Z,19.62
2023-09-08T05:49:41.107Z,19.62
2023-09-08T05:52:13.390Z,19.67
2023-09-08T05:54:45.599Z,19.71
2023-09-08T05:57:17.685Z,19.69
2023-09-08T05:59:49.840Z,19.70
2023-09-08T06:02:21.992Z,19.78
2023-09-08T06:04:54.082Z,19.79
2023-09-08T06:07:26.259Z,19.85
2023-09-08T06:09:58.375Z,19.90
2023-09-08T06:12:30.549Z,19.92
2023-09-08T06:15:04.656Z,19.93
2023-09-08T06:17:36.807Z,19.88
2023-09-08T06:20:10.052Z,19.90
2023-09-08T06:22:42.299Z,19.94
2023-09-08T06:25:14.527Z,19.98
2023-09-08T06:27:46.751Z,20.01
2023-09-08T06:30:19.901Z,20.03
2023-09-08T06:32:52.212Z,20.08
2023-09-08T06:35:24.373Z,20.09
2023-09-08T06:37:56.640Z,20.17
2023-09-08T06:40:31.754Z,20.16
2023-09-08T06:43:04.241Z,20.21
2023-09-08T06:45:41.148Z,20.32
2023-09-08T06:48:13.391Z,20.39
2023-09-08T06:50:45.644Z,20.41
2023-09-08T06:53:17.859Z,20.49
2023-09-08T06:55:50.376Z,20.60
2023-09-08T06:58:22.635Z,20.68
2023-09-08T07:00:55.953Z,20.74
2023-09-08T07:03:38.691Z,20.87
2023-09-08T07:06:11.177Z,20.95
2023-09-08T07:08:43.417Z,21.05
2023-09-08T07:11:17.646Z,21.14
2023-09-08T07:13:50.154Z,21.35
2023-09-08T07:16:22.319Z,21.34
2023-09-08T07:18:54.491Z,21.49
2023-09-08T07:21:26.634Z,21.67
2023-09-08T07:23:59.582Z,21.89
2023-09-08T07:26:31.703Z,22.15
2023-09-08T07:29:03.815Z,22.45
2023-09-08T07:31:36.571Z,22.86
2023-09-08T07:34:08.784Z,23.04
2023-09-08T07:36:41.305Z,23.28
2023-09-08T07:39:13.418Z,23.56
2023-09-08T07:41:45.548Z,23.94
2023-09-08T07:44:19.061Z,24.17
2023-09-08T07:46:52.693Z,24.31
2023-09-08T07:49:25.372Z,24.41
2023-09-08T07:51:57.526Z,24.49
2023-09-08T07:54:29.604Z,24.66
2023-09-08T07:57:01.725Z,24.87
2023-09-08T07:59:35.386Z,25.02
2023-09-08T08:02:09.740Z,25.33
2023-09-08T08:04:44.803Z,25.60
2023-09-08T08:07:16.997Z,25.75
2023-09-08T08:09:49.135Z,26.01
2023-09-08T08:12:21.327Z,26.26
2023-09-08T08:14:53.533Z,26.57
2023-09-08T08:17:27.704Z,26.73
2023-09-08T08:20:00.460Z,26.96
2023-09-08T08:22:32.583Z,27.30
2023-09-08T08:25:05.723Z,27.83
2023-09-08T08:27:37.941Z,28.34
2023-09-08T08:30:12.815Z,28.86
2023-09-08T08:32:45.101Z,29.03
2023-09-08T08:35:17.340Z,29.14
2023-09-08T08:37:49.748Z,29.80
2023-09-08T08:40:22.019Z,30.24
2023-09-08T08:43:00.660Z,30.34
2023-09-08T08:45:38.552Z,30.83
2023-09-08T08:48:13.286Z,31.15
2023-09-08T08:50:45.688Z,31.54
2023-09-08T08:53:22.094Z,31.78
2023-09-08T08:55:59.426Z,31.49
2023-09-08T08:58:31.732Z,31.66
2023-09-08T09:01:04.806Z,31.63
2023-09-08T09:03:39.434Z,31.96
2023-09-08T09:06:12.257Z,32.39
2023-09-08T09:08:45.728Z,32.74
2023-09-08T09:11:18.051Z,32.78
2023-09-08T09:13:50.320Z,32.94
2023-09-08T09:16:22.488Z,32.92
2023-09-08T09:19:00.776Z,33.21
2023-09-08T09:21:52.010Z,33.76
2023-09-08T09:24:35.032Z,34.00
2023-09-08T09:27:08.129Z,34.33
2023-09-08T09:29:51.485Z,34.23
2023-09-08T09:32:28.108Z,34.76
2023-09-08T09:35:02.752Z,34.88
2023-09-08T09:37:37.239Z,35.34
2023-09-08T09:40:12.062Z,35.46
2023-09-08T09:42:44.463Z,36.04
2023-09-08T09:45:17.331Z,36.67
2023-09-08T09:47:49.673Z,37.01
2023-09-08T09:50:34.468Z,37.51
2023-09-08T09:53:18.206Z,37.19
2023-09-08T09:55:50.971Z,37.89
2023-09-08T09:58:24.580Z,38.46
2023-09-08T10:00:56.915Z,39.03
2023-09-08T10:03:32.276Z,39.41
2023-09-08T10:06:04.903Z,39.82
2023-09-08T10:08:39.819Z,40.02
2023-09-08T10:11:17.482Z,40.11
2023-09-08T10:13:52.861Z,40.24
2023-09-08T10:16:32.176Z,40.86
2023-09-08T10:19:10.678Z,40.44
2023-09-08T10:21:46.387Z,40.35
2023-09-08T10:24:36.659Z,41.08
2023-09-08T10:27:13.428Z,40.97
2023-09-08T10:29:46.333Z,41.62
2023-09-08T10:32:20.891Z,40.95
2023-09-08T10:34:55.364Z,41.08
2023-09-08T10:37:30.965Z,41.87
2023-09-08T10:40:35.784Z,42.36
2023-09-08T10:43:12.286Z,42.23
2023-09-08T10:45:44.651Z,42.05
2023-09-08T10:48:17.192Z,41.18
2023-09-08T10:50:49.391Z,41.11
2023-09-08T10:53:22.485Z,40.91
2023-09-08T10:58:40.231Z,41.75
2023-09-08T11:01:20.391Z,41.02
2023-09-08T11:03:52.987Z,41.51
2023-09-08T11:06:25.297Z,40.88
2023-09-08T11:08:57.870Z,41.54
2023-09-08T11:11:35.273Z,42.19
2023-09-08T11:14:07.464Z,42.81
2023-09-08T11:16:39.642Z,43.12
2023-09-08T11:19:11.996Z,42.90
2023-09-08T11:21:45.514Z,43.23
2023-09-08T11:24:19.671Z,43.73
2023-09-08T11:26:52.814Z,43.84
2023-09-08T11:29:25.072Z,43.84
2023-09-08T11:31:57.289Z,44.48
2023-09-08T11:34:30.355Z,44.71
2023-09-08T11:37:10.708Z,44.77
2023-09-08T11:39:47.264Z,43.97
2023-09-08T11:42:19.998Z,43.69
2023-09-08T11:44:52.292Z,43.80
2023-09-08T11:47:24.430Z,44.39
2023-09-08T11:49:56.501Z,44.63
2023-09-08T11:52:29.311Z,44.86
2023-09-08T11:55:06.986Z,44.82
2023-09-08T11:57:41.563Z,44.23
2023-09-08T12:00:18.023Z,44.40
2023-09-08T12:02:51.068Z,44.57
2023-09-08T12:05:27.991Z,44.54
2023-09-08T12:08:00.452Z,44.25
2023-09-08T12:10:40.869Z,44.49
2023-09-08T12:13:17.247Z,44.23
2023-09-08T12:15:49.715Z,44.23
2023-09-08T12:18:40.687Z,44.69
2023-09-08T12:21:13.035Z,45.03
2023-09-08T12:23:50.578Z,44.72
2023-09-08T12:26:25.000Z,44.57
2023-09-08T12:28:57.308Z,44.62
2023-09-08T12:31:30.026Z,44.21
2023-09-08T12:34:02.978Z,44.36
2023-09-08T12:36:37.703Z,43.45
2023-09-08T12:39:09.881Z,42.49
2023-09-08T12:41:42.040Z,42.67
2023-09-08T12:44:14.220Z,43.08
2023-09-08T12:46:46.394Z,43.53
2023-09-08T12:49:18.699Z,42.42
2023-09-08T12:51:50.789Z,42.16
2023-09-08T12:54:23.153Z,40.84
2023-09-08T12:56:55.297Z,41.48
2023-09-08T12:59:27.561Z,41.70
2023-09-08T13:01:59.686Z,41.48
2023-09-08T13:04:32.156Z,40.81
2023-09-08T13:07:04.466Z,40.41
2023-09-08T13:09:36.677Z,39.39
2023-09-08T13:12:10.274Z,38.19
2023-09-08T13:14:42.807Z,37.40
2023-09-08T13:17:20.176Z,36.72
2023-09-08T13:19:52.370Z,36.35
2023-09-08T13:22:24.581Z,35.91
2023-09-08T13:24:56.705Z,35.69
2023-09-08T13:27:28.885Z,35.76
2023-09-08T13:30:15.661Z,35.45
2023-09-08T13:32:47.886Z,35.24
2023-09-08T13:35:20.248Z,34.97
2023-09-08T13:37:52.424Z,35.15
2023-09-08T13:40:24.698Z,35.47
2023-09-08T13:42:56.895Z,35.68
2023-09-08T13:45:29.132Z,35.72
2023-09-08T13:48:01.464Z,35.55
2023-09-08T13:50:34.320Z,35.13
2023-09-08T13:53:09.487Z,34.56
2023-09-08T13:55:43.807Z,34.26
2023-09-08T13:58:20.045Z,33.94
2023-09-08T14:00:53.724Z,33.65
2023-09-08T14:03:30.138Z,33.28
2023-09-08T14:06:07.413Z,33.07
2023-09-08T14:11:42.496Z,32.72
2023-09-08T14:14:16.232Z,32.69
2023-09-08T14:16:48.582Z,32.79
2023-09-08T14:19:20.750Z,32.75
2023-09-08T14:21:52.969Z,32.71
2023-09-08T14:24:25.216Z,32.64
2023-09-08T14:26:57.384Z,32.50
2023-09-08T14:29:29.495Z,32.33
2023-09-08T14:32:01.830Z,32.40
2023-09-08T14:34:34.092Z,32.48
2023-09-08T14:37:07.938Z,32.47
2023-09-08T14:39:41.804Z,32.33
2023-09-08T14:42:15.292Z,32.30
2023-09-08T14:44:47.605Z,32.30
2023-09-08T14:47:20.294Z,32.35
2023-09-08T14:49:52.399Z,32.33
2023-09-08T14:52:25.103Z,32.19
2023-09-08T14:54:57.196Z,32.18
2023-09-08T14:57:29.376Z,32.01
2023-09-08T15:00:01.548Z,31.92
2023-09-08T15:02:33.793Z,31.90
2023-09-08T15:05:06.539Z,31.81
2023-09-08T15:07:38.799Z,31.76
2023-09-08T15:10:11.131Z,31.74
2023-09-08T15:12:43.342Z,31.84
2023-09-08T15:15:15.799Z,31.83
2023-09-08T15:17:47.982Z,31.74
2023-09-08T15:20:23.084Z,31.74
2023-09-08T15:22:55.760Z,31.71
2023-09-08T15:25:27.959Z,31.67
2023-09-08T15:28:00.083Z,31.67
2023-09-08T15:30:32.384Z,31.67
2023-09-08T15:33:08.177Z,31.61
2023-09-08T15:35:40.759Z,31.53
2023-09-08T15:38:14.508Z,31.45
2023-09-08T15:41:08.725Z,31.39
2023-09-08T15:43:42.184Z,31.35
2023-09-08T15:46:14.678Z,31.28
2023-09-08T15:48:46.910Z,31.22
2023-09-08T15:51:19.089Z,31.08
2023-09-08T15:53:51.660Z,30.98
2023-09-08T15:56:23.785Z,30.89
2023-09-08T15:58:55.926Z,30.82
2023-09-08T16:01:28.208Z,30.76
2023-09-08T16:04:00.742Z,30.65
2023-09-08T16:06:33.636Z,30.69
2023-09-08T16:09:07.326Z,30.66
2023-09-08T16:11:39.420Z,30.66
2023-09-08T16:14:11.552Z,30.61
2023-09-08T16:16:45.167Z,30.57
2023-09-08T16:19:18.828Z,30.53
2023-09-08T16:21:51.037Z,30.41
2023-09-08T16:24:23.460Z,30.29
2023-09-08T16:26:58.180Z,30.22
2023-09-08T16:29:31.989Z,30.21
2023-09-08T16:32:04.528Z,30.15
2023-09-08T16:34:36.751Z,30.14
2023-09-08T16:37:09.969Z,30.10
2023-09-08T16:39:42.344Z,29.96
2023-09-08T16:42:14.803Z,29.80
2023-09-08T16:44:47.124Z,29.63
2023-09-08T16:47:21.246Z,29.53
2023-09-08T16:49:54.287Z,29.47
2023-09-08T16:52:26.687Z,29.42
2023-09-08T16:54:58.854Z,29.40
2023-09-08T16:57:31.027Z,29.37
2023-09-08T17:00:04.794Z,29.41
2023-09-08T17:02:38.152Z,29.39
2023-09-08T17:05:11.455Z,29.29
2023-09-08T17:07:44.631Z,29.18
2023-09-08T17:10:16.921Z,29.08
2023-09-08T17:12:49.083Z,29.01
2023-09-08T17:15:21.236Z,28.97
2023-09-08T17:17:53.629Z,28.89
2023-09-08T17:20:27.098Z,28.77
2023-09-08T17:22:59.368Z,28.62
2023-09-08T17:25:31.561Z,28.52
2023-09-08T17:28:03.904Z,28.46
2023-09-08T17:30:36.074Z,28.41
2023-09-08T17:33:08.234Z,28.35
2023-09-08T17:35:40.466Z,28.27
2023-09-08T17:38:12.662Z,28.17
2023-09-08T17:40:44.909Z,28.08
2023-09-08T17:43:17.059Z,28.01
2023-09-08T17:45:49.323Z,27.91
2023-09-08T17:48:21.500Z,27.82
2023-09-08T17:50:53.830Z,27.67
2023-09-08T17:53:25.912Z,27.57
2023-09-08T17:55:58.032Z,27.42
2023-09-08T17:58:30.193Z,27.32
2023-09-08T18:01:02.463Z,27.22
2023-09-08T18:03:34.938Z,27.11
2023-09-08T18:06:10.846Z,27.03
2023-09-08T18:08:43.441Z,26.94
2023-09-08T18:11:15.786Z,26.86
2023-09-08T18:13:49.652Z,26.76
2023-09-08T18:16:22.030Z,26.70
2023-09-08T18:18:54.275Z,26.62
2023-09-08T18:21:26.419Z,26.53
2023-09-08T18:23:58.569Z,26.42
2023-09-08T18:26:30.881Z,26.32
2023-09-08T18:29:03.171Z,26.21
2023-09-08T18:31:35.406Z,26.13
2023-09-08T18:34:10.675Z,26.06
2023-09-08T18:36:42.866Z,25.97
2023-09-08T18:39:14.979Z,25.88
2023-09-08T18:41:47.098Z,25.81
2023-09-08T18:44:19.292Z,25.75
2023-09-08T18:46:51.685Z,25.64
2023-09-08T18:49:23.888Z,25.58
2023-09-08T18:51:56.159Z,25.50
2023-09-08T18:54:30.916Z,25.44
2023-09-08T18:57:03.524Z,25.38
2023-09-08T18:59:35.742Z,25.30
2023-09-08T19:02:08.043Z,25.21
2023-09-08T19:04:40.218Z,25.16
2023-09-08T19:07:12.702Z,25.07
2023-09-08T19:09:44.813Z,25.01
2023-09-08T19:12:17.013Z,24.94
2023-09-08T19:14:49.296Z,24.87
2023-09-08T19:17:21.624Z,24.83
2023-09-08T19:19:53.809Z,24.77
2023-09-08T19:22:26.002Z,24.73
2023-09-08T19:24:58.267Z,24.66
2023-09-08T19:27:31.075Z,24.60
2023-09-08T19:30:07.070Z,24.53
2023-09-08T19:32:40.376Z,24.49
2023-09-08T19:35:12.726Z,24.45
2023-09-08T19:37:44.914Z,24.40
2023-09-08T19:40:17.273Z,24.35
2023-09-08T19:42:49.448Z,24.32
2023-09-08T19:45:21.547Z,24.28
2023-09-08T19:47:54.041Z,24.24
2023-09-08T19:50:26.351Z,24.17
2023-09-08T19:52:58.564Z,24.13
2023-09-08T19:55:32.040Z,24.08
2023-09-08T19:58:04.592Z,24.09
2023-09-08T20:00:36.688Z,24.06
2023-09-08T20:03:08.918Z,23.99
2023-09-08T20:05:45.063Z,23.96
2023-09-08T20:08:17.200Z,23.91
2023-09-08T20:10:54.394Z,23.86
2023-09-08T20:13:26.659Z,23.82
2023-09-08T20:16:04.519Z,23.80
2023-09-08T20:18:37.414Z,23.77
2023-09-08T20:21:10.942Z,23.73
2023-09-08T20:23:43.210Z,23.72
2023-09-08T20:26:15.557Z,23.68
2023-09-08T20:28:48.378Z,23.65
2023-09-08T20:31:21.008Z,23.60
2023-09-08T20:33:53.328Z,23.59
2023-09-08T20:36:26.050Z,23.59
2023-09-08T20:38:58.173Z,23.58
2023-09-08T20:41:30.373Z,23.59
2023-09-08T20:44:02.709Z,23.59
2023-09-08T20:46:34.947Z,23.66
2023-09-08T20:49:07.203Z,23.76
2023-09-08T20:51:39.399Z,23.81
2023-09-08T20:54:11.656Z,23.88
2023-09-08T20:56:43.789Z,23.93
2023-09-08T20:59:16.177Z,23.97
2023-09-08T21:01:48.321Z,23.97
2023-09-08T21:04:20.993Z,24.00
2023-09-08T21:06:53.311Z,24.03
2023-09-08T21:09:25.486Z,23.99
2023-09-08T21:11:57.683Z,23.98
2023-09-08T21:14:29.992Z,23.95
2023-09-08T21:17:02.410Z,23.91
2023-09-08T21:19:34.598Z,23.85
2023-09-08T21:22:06.920Z,23.85
2023-09-08T21:24:39.162Z,23.83
2023-09-08T21:27:11.447Z,23.81
2023-09-08T21:29:43.902Z,23.79
2023-09-08T21:32:16.018Z,23.77
2023-09-08T21:34:48.111Z,23.71
2023-09-08T21:37:23.378Z,23.71
2023-09-08T21:39:56.334Z,23.69
2023-09-08T21:42:28.536Z,23.66
2023-09-08T21:45:00.773Z,23.66
2023-09-08T21:47:34.221Z,23.65
2023-09-08T21:50:10.055Z,23.63
2023-09-08T21:52:42.495Z,23.62
2023-09-08T21:55:17.920Z,23.58
2023-09-08T21:57:50.107Z,23.55
2023-09-08T22:00:23.594Z,23.53
2023-09-08T22:02:56.004Z,23.48
2023-09-08T22:05:28.780Z,23.43
2023-09-08T22:08:00.974Z,23.43
2023-09-08T22:10:33.113Z,23.38
2023-09-08T22:13:05.430Z,23.37
2023-09-08T22:15:37.855Z,23.32
2023-09-08T22:18:10.235Z,23.29
2023-09-08T22:20:42.626Z,23.25
2023-09-08T22:23:14.868Z,23.16
2023-09-08T22:25:47.086Z,23.16
2023-09-08T22:28:19.218Z,23.15
2023-09-08T22:30:51.316Z,23.14
2023-09-08T22:33:23.659Z,23.11
2023-09-08T22:35:55.947Z,23.06
2023-09-08T22:38:28.344Z,23.02
2023-09-08T22:41:01.569Z,22.96
2023-09-08T22:43:33.801Z,22.90
2023-09-08T22:46:08.280Z,22.84
2023-09-08T22:48:40.570Z,22.77
2023-09-08T22:51:14.715Z,22.77
2023-09-08T22:53:46.856Z,22.76
2023-09-08T22:56:19.288Z,22.73
2023-09-08T22:58:51.519Z,22.67
2023-09-08T23:01:23.691Z,22.60
2023-09-08T23:03:55.929Z,22.50
2023-09-08T23:06:28.217Z,22.43
2023-09-08T23:09:00.340Z,22.35
2023-09-08T23:11:35.093Z,22.29
2023-09-08T23:14:07.263Z,22.22
2023-09-08T23:16:39.874Z,22.20
2023-09-08T23:19:12.307Z,22.11
2023-09-08T23:21:44.538Z,22.09
2023-09-08T23:24:16.709Z,22.06
2023-09-08T23:26:49.222Z,22.06
2023-09-08T23:29:21.345Z,22.02
2023-09-08T23:31:53.535Z,22.01
2023-09-08T23:34:25.736Z,22.00
2023-09-08T23:37:00.868Z,21.97
2023-09-08T23:39:33.424Z,21.95
2023-09-08T23:42:05.750Z,21.92
2023-09-08T23:44:37.878Z,21.89
2023-09-08T23:47:10.182Z,21.87
2023-09-08T23:49:42.313Z,21.84
2023-09-08T23:52:14.416Z,21.82
2023-09-08T23:54:46.565Z,21.79
2023-09-08T23:57:18.900Z,21.84
2023-09-08T23:59:51.168Z,21.82
